sensor_id;sensor_type;location;lat;lon;timestamp;temperature;humidity
19220;DHT22;9744;49.364;7.484;2023-07-31T00:02:22;15.90;99.90
19220;DHT22;9744;49.364;7.484;2023-07-31T00:04:49;15.80;99.90
19220;DHT22;9744;49.364;7.484;2023-07-31T00:07:16;15.90;99.90
19220;DHT22;9744;49.364;7.484;2023-07-31T00:09:44;15.90;99.90
19220;DHT22;9744;49.364;7.484;2023-07-31T00:12:11;15.90;99.90
19220;DHT22;9744;49.364;7.484;2023-07-31T00:14:38;15.90;99.90
19220;DHT22;9744;49.364;7.484;2023-07-31T00:17:06;15.90;99.90
19220;DHT22;9744;49.364;7.484;2023-07-31T00:19:34;15.90;99.90
19220;DHT22;9744;49.364;7.484;2023-07-31T00:22:02;15.90;99.90
19220;DHT22;9744;49.364;7.484;2023-07-31T00:24:29;15.90;99.90
19220;DHT22;9744;49.364;7.484;2023-07-31T00:26:57;15.90;99.90
19220;DHT22;9744;49.364;7.484;2023-07-31T00:29:24;15.90;99.90
19220;DHT22;9744;49.364;7.484;2023-07-31T00:31:51;15.90;99.90
19220;DHT22;9744;49.364;7.484;2023-07-31T00:34:18;15.80;99.90
19220;DHT22;9744;49.364;7.484;2023-07-31T00:36:47;15.80;99.90
19220;DHT22;9744;49.364;7.484;2023-07-31T00:39:16;15.80;99.90
19220;DHT22;9744;49.364;7.484;2023-07-31T00:41:44;15.80;99.90
19220;DHT22;9744;49.364;7.484;2023-07-31T00:44:11;15.70;99.90
19220;DHT22;9744;49.364;7.484;2023-07-31T00:46:39;15.70;99.90
19220;DHT22;9744;49.364;7.484;2023-07-31T00:49:06;15.60;99.90
19220;DHT22;9744;49.364;7.484;2023-07-31T00:51:34;15.60;99.90
19220;DHT22;9744;49.364;7.484;2023-07-31T00:54:04;15.60;99.90
19220;DHT22;9744;49.364;7.484;2023-07-31T00:56:32;15.50;99.90
19220;DHT22;9744;49.364;7.484;2023-07-31T00:59:00;15.50;99.90
19220;DHT22;9744;49.364;7.484;2023-07-31T01:01:28;15.40;99.90
19220;DHT22;9744;49.364;7.484;2023-07-31T01:03:56;15.40;99.90
19220;DHT22;9744;49.364;7.484;2023-07-31T01:06:30;15.40;99.90
19220;DHT22;9744;49.364;7.484;2023-07-31T01:09:05;15.30;99.90
19220;DHT22;9744;49.364;7.484;2023-07-31T01:11:34;15.20;99.90
19220;DHT22;9744;49.364;7.484;2023-07-31T01:14:05;15.20;99.90
19220;DHT22;9744;49.364;7.484;2023-07-31T01:16:32;15.10;99.90
19220;DHT22;9744;49.364;7.484;2023-07-31T01:19:00;15.10;99.90
19220;DHT22;9744;49.364;7.484;2023-07-31T01:21:47;15.10;99.90
19220;DHT22;9744;49.364;7.484;2023-07-31T01:24:29;15.00;99.90
19220;DHT22;9744;49.364;7.484;2023-07-31T01:27:04;14.90;99.90
19220;DHT22;9744;49.364;7.484;2023-07-31T01:29:38;14.90;99.90
19220;DHT22;9744;49.364;7.484;2023-07-31T01:32:08;14.90;99.90
19220;DHT22;9744;49.364;7.484;2023-07-31T01:34:37;14.90;99.90
19220;DHT22;9744;49.364;7.484;2023-07-31T01:37:04;14.80;99.90
19220;DHT22;9744;49.364;7.484;2023-07-31T01:39:32;14.80;99.90
19220;DHT22;9744;49.364;7.484;2023-07-31T01:42:00;14.80;99.90
19220;DHT22;9744;49.364;7.484;2023-07-31T01:44:28;14.80;99.90
19220;DHT22;9744;49.364;7.484;2023-07-31T01:46:55;14.80;99.90
19220;DHT22;9744;49.364;7.484;2023-07-31T01:49:22;14.80;99.90
19220;DHT22;9744;49.364;7.484;2023-07-31T01:51:49;14.80;99.90
19220;DHT22;9744;49.364;7.484;2023-07-31T01:54:17;14.70;99.90
19220;DHT22;9744;49.364;7.484;2023-07-31T01:56:45;14.70;99.90
19220;DHT22;9744;49.364;7.484;2023-07-31T01:59:13;14.70;99.90
19220;DHT22;9744;49.364;7.484;2023-07-31T02:01:41;14.60;99.90
19220;DHT22;9744;49.364;7.484;2023-07-31T02:04:08;14.60;99.90
19220;DHT22;9744;49.364;7.484;2023-07-31T02:06:37;14.60;99.90
19220;DHT22;9744;49.364;7.484;2023-07-31T02:09:05;14.60;99.90
19220;DHT22;9744;49.364;7.484;2023-07-31T02:11:33;14.60;99.90
19220;DHT22;9744;49.364;7.484;2023-07-31T02:14:00;14.60;99.90
19220;DHT22;9744;49.364;7.484;2023-07-31T02:16:29;14.50;99.90
19220;DHT22;9744;49.364;7.484;2023-07-31T02:18:56;14.50;99.90
19220;DHT22;9744;49.364;7.484;2023-07-31T02:21:23;14.40;99.90
19220;DHT22;9744;49.364;7.484;2023-07-31T02:23:50;14.40;99.90
19220;DHT22;9744;49.364;7.484;2023-07-31T02:26:18;14.40;99.90
19220;DHT22;9744;49.364;7.484;2023-07-31T02:28:46;14.40;99.90
19220;DHT22;9744;49.364;7.484;2023-07-31T02:31:13;14.40;99.90
19220;DHT22;9744;49.364;7.484;2023-07-31T02:33:42;14.30;99.90
19220;DHT22;9744;49.364;7.484;2023-07-31T02:36:10;14.30;99.90
19220;DHT22;9744;49.364;7.484;2023-07-31T02:38:37;14.30;99.90
19220;DHT22;9744;49.364;7.484;2023-07-31T02:41:06;14.30;99.90
19220;DHT22;9744;49.364;7.484;2023-07-31T02:43:33;14.20;99.90
19220;DHT22;9744;49.364;7.484;2023-07-31T02:46:00;14.20;99.90
19220;DHT22;9744;49.364;7.484;2023-07-31T02:48:28;14.20;99.90
19220;DHT22;9744;49.364;7.484;2023-07-31T02:50:56;14.20;99.90
19220;DHT22;9744;49.364;7.484;2023-07-31T02:53:24;14.20;99.90
19220;DHT22;9744;49.364;7.484;2023-07-31T02:55:51;14.20;99.90
19220;DHT22;9744;49.364;7.484;2023-07-31T02:58:19;14.20;99.90
19220;DHT22;9744;49.364;7.484;2023-07-31T03:00:46;14.20;99.90
19220;DHT22;9744;49.364;7.484;2023-07-31T03:03:13;14.20;99.90
19220;DHT22;9744;49.364;7.484;2023-07-31T03:05:40;14.20;99.90
19220;DHT22;9744;49.364;7.484;2023-07-31T03:08:09;14.20;99.90
19220;DHT22;9744;49.364;7.484;2023-07-31T03:10:36;14.20;99.90
19220;DHT22;9744;49.364;7.484;2023-07-31T03:13:04;14.20;99.90
19220;DHT22;9744;49.364;7.484;2023-07-31T03:15:32;14.20;99.90
19220;DHT22;9744;49.364;7.484;2023-07-31T03:17:59;14.20;99.90
19220;DHT22;9744;49.364;7.484;2023-07-31T03:20:26;14.20;99.90
19220;DHT22;9744;49.364;7.484;2023-07-31T03:22:53;14.10;99.90
19220;DHT22;9744;49.364;7.484;2023-07-31T03:25:22;14.10;99.90
19220;DHT22;9744;49.364;7.484;2023-07-31T03:27:50;14.10;99.90
19220;DHT22;9744;49.364;7.484;2023-07-31T03:30:17;14.10;99.90
19220;DHT22;9744;49.364;7.484;2023-07-31T03:32:45;14.10;99.90
19220;DHT22;9744;49.364;7.484;2023-07-31T03:35:12;14.10;99.90
19220;DHT22;9744;49.364;7.484;2023-07-31T03:37:39;14.10;99.90
19220;DHT22;9744;49.364;7.484;2023-07-31T03:40:07;14.00;99.90
19220;DHT22;9744;49.364;7.484;2023-07-31T03:42:36;14.00;99.90
19220;DHT22;9744;49.364;7.484;2023-07-31T03:45:05;14.00;99.90
19220;DHT22;9744;49.364;7.484;2023-07-31T03:47:32;14.00;99.90
19220;DHT22;9744;49.364;7.484;2023-07-31T03:49:59;14.00;99.90
19220;DHT22;9744;49.364;7.484;2023-07-31T03:52:27;14.00;99.90
19220;DHT22;9744;49.364;7.484;2023-07-31T03:54:54;14.00;99.90
19220;DHT22;9744;49.364;7.484;2023-07-31T03:57:21;13.90;99.90
19220;DHT22;9744;49.364;7.484;2023-07-31T03:59:50;13.90;99.90
19220;DHT22;9744;49.364;7.484;2023-07-31T04:02:17;13.90;99.90
19220;DHT22;9744;49.364;7.484;2023-07-31T04:04:44;13.80;99.90
19220;DHT22;9744;49.364;7.484;2023-07-31T04:07:11;13.80;99.90
19220;DHT22;9744;49.364;7.484;2023-07-31T04:09:39;13.80;99.90
19220;DHT22;9744;49.364;7.484;2023-07-31T04:12:07;13.80;99.90
19220;DHT22;9744;49.364;7.484;2023-07-31T04:14:34;13.70;99.90
19220;DHT22;9744;49.364;7.484;2023-07-31T04:17:03;13.70;99.90
19220;DHT22;9744;49.364;7.484;2023-07-31T04:19:30;13.70;99.90
19220;DHT22;9744;49.364;7.484;2023-07-31T04:21:57;13.70;99.90
19220;DHT22;9744;49.364;7.484;2023-07-31T04:24:24;13.60;99.90
19220;DHT22;9744;49.364;7.484;2023-07-31T04:26:52;13.60;99.90
19220;DHT22;9744;49.364;7.484;2023-07-31T04:29:19;13.60;99.90
19220;DHT22;9744;49.364;7.484;2023-07-31T04:31:48;13.60;99.90
19220;DHT22;9744;49.364;7.484;2023-07-31T04:34:16;13.50;99.90
19220;DHT22;9744;49.364;7.484;2023-07-31T04:36:43;13.50;99.90
19220;DHT22;9744;49.364;7.484;2023-07-31T04:39:11;13.50;99.90
19220;DHT22;9744;49.364;7.484;2023-07-31T04:41:38;13.50;99.90
19220;DHT22;9744;49.364;7.484;2023-07-31T04:44:05;13.50;99.90
19220;DHT22;9744;49.364;7.484;2023-07-31T04:46:33;13.50;99.90
19220;DHT22;9744;49.364;7.484;2023-07-31T04:49:01;13.50;99.90
19220;DHT22;9744;49.364;7.484;2023-07-31T04:51:30;13.50;99.90
19220;DHT22;9744;49.364;7.484;2023-07-31T04:53:57;13.50;99.90
19220;DHT22;9744;49.364;7.484;2023-07-31T04:56:24;13.50;99.90
19220;DHT22;9744;49.364;7.484;2023-07-31T04:58:51;13.50;99.90
19220;DHT22;9744;49.364;7.484;2023-07-31T05:01:19;13.50;99.90
19220;DHT22;9744;49.364;7.484;2023-07-31T05:03:46;13.60;99.90
19220;DHT22;9744;49.364;7.484;2023-07-31T05:06:13;13.60;99.90
19220;DHT22;9744;49.364;7.484;2023-07-31T05:08:42;13.60;99.90
19220;DHT22;9744;49.364;7.484;2023-07-31T05:11:09;13.70;99.90
19220;DHT22;9744;49.364;7.484;2023-07-31T05:13:36;13.70;99.90
19220;DHT22;9744;49.364;7.484;2023-07-31T05:16:04;13.70;99.90
19220;DHT22;9744;49.364;7.484;2023-07-31T05:18:31;13.70;99.90
19220;DHT22;9744;49.364;7.484;2023-07-31T05:20:58;13.80;99.90
19220;DHT22;9744;49.364;7.484;2023-07-31T05:23:26;13.90;99.90
19220;DHT22;9744;49.364;7.484;2023-07-31T05:25:54;13.90;99.90
19220;DHT22;9744;49.364;7.484;2023-07-31T05:28:22;14.00;99.90
19220;DHT22;9744;49.364;7.484;2023-07-31T05:30:49;14.00;99.90
19220;DHT22;9744;49.364;7.484;2023-07-31T05:33:16;14.10;99.90
19220;DHT22;9744;49.364;7.484;2023-07-31T05:35:43;14.20;99.90
19220;DHT22;9744;49.364;7.484;2023-07-31T05:38:11;14.20;99.90
19220;DHT22;9744;49.364;7.484;2023-07-31T05:40:38;14.30;99.90
19220;DHT22;9744;49.364;7.484;2023-07-31T05:43:06;14.30;99.90
19220;DHT22;9744;49.364;7.484;2023-07-31T05:45:34;14.40;99.90
19220;DHT22;9744;49.364;7.484;2023-07-31T05:48:01;14.40;99.90
19220;DHT22;9744;49.364;7.484;2023-07-31T05:50:28;14.50;99.90
19220;DHT22;9744;49.364;7.484;2023-07-31T05:52:55;14.50;99.90
19220;DHT22;9744;49.364;7.484;2023-07-31T05:55:23;14.60;99.90
19220;DHT22;9744;49.364;7.484;2023-07-31T05:57:52;14.60;99.90
19220;DHT22;9744;49.364;7.484;2023-07-31T06:00:21;14.60;99.90
19220;DHT22;9744;49.364;7.484;2023-07-31T06:02:48;14.60;99.90
19220;DHT22;9744;49.364;7.484;2023-07-31T06:05:16;14.60;99.90
19220;DHT22;9744;49.364;7.484;2023-07-31T06:07:43;14.70;99.90
19220;DHT22;9744;49.364;7.484;2023-07-31T06:10:10;14.70;99.90
19220;DHT22;9744;49.364;7.484;2023-07-31T06:12:37;14.70;99.90
19220;DHT22;9744;49.364;7.484;2023-07-31T06:15:06;14.60;99.90
19220;DHT22;9744;49.364;7.484;2023-07-31T06:17:34;14.60;99.90
19220;DHT22;9744;49.364;7.484;2023-07-31T06:20:02;14.60;99.90
19220;DHT22;9744;49.364;7.484;2023-07-31T06:22:31;14.60;99.90
19220;DHT22;9744;49.364;7.484;2023-07-31T06:24:58;14.60;99.90
19220;DHT22;9744;49.364;7.484;2023-07-31T06:27:25;14.60;99.90
19220;DHT22;9744;49.364;7.484;2023-07-31T06:29:52;14.60;99.90
19220;DHT22;9744;49.364;7.484;2023-07-31T06:32:19;14.60;99.90
19220;DHT22;9744;49.364;7.484;2023-07-31T06:34:48;14.70;99.90
19220;DHT22;9744;49.364;7.484;2023-07-31T06:37:16;14.80;99.90
19220;DHT22;9744;49.364;7.484;2023-07-31T06:39:43;14.80;99.90
19220;DHT22;9744;49.364;7.484;2023-07-31T06:42:11;14.90;99.90
19220;DHT22;9744;49.364;7.484;2023-07-31T06:44:38;15.00;99.90
19220;DHT22;9744;49.364;7.484;2023-07-31T06:47:09;15.20;99.90
19220;DHT22;9744;49.364;7.484;2023-07-31T06:49:36;15.30;99.90
19220;DHT22;9744;49.364;7.484;2023-07-31T06:52:06;15.50;99.90
19220;DHT22;9744;49.364;7.484;2023-07-31T06:54:33;15.60;99.90
19220;DHT22;9744;49.364;7.484;2023-07-31T06:57:01;15.80;99.90
19220;DHT22;9744;49.364;7.484;2023-07-31T06:59:29;16.00;99.90
19220;DHT22;9744;49.364;7.484;2023-07-31T07:01:56;16.20;99.90
19220;DHT22;9744;49.364;7.484;2023-07-31T07:04:23;16.30;99.90
19220;DHT22;9744;49.364;7.484;2023-07-31T07:06:51;16.50;99.90
19220;DHT22;9744;49.364;7.484;2023-07-31T07:09:20;16.60;99.90
19220;DHT22;9744;49.364;7.484;2023-07-31T07:11:47;16.70;99.90
19220;DHT22;9744;49.364;7.484;2023-07-31T07:14:15;16.70;99.90
19220;DHT22;9744;49.364;7.484;2023-07-31T07:16:42;16.70;99.90
19220;DHT22;9744;49.364;7.484;2023-07-31T07:19:09;16.70;99.90
19220;DHT22;9744;49.364;7.484;2023-07-31T07:21:36;16.60;99.90
19220;DHT22;9744;49.364;7.484;2023-07-31T07:24:04;16.60;99.90
19220;DHT22;9744;49.364;7.484;2023-07-31T07:26:33;16.50;99.90
19220;DHT22;9744;49.364;7.484;2023-07-31T07:29:00;16.40;99.90
19220;DHT22;9744;49.364;7.484;2023-07-31T07:31:28;16.40;99.90
19220;DHT22;9744;49.364;7.484;2023-07-31T07:33:55;16.30;99.90
19220;DHT22;9744;49.364;7.484;2023-07-31T07:36:23;16.40;99.90
19220;DHT22;9744;49.364;7.484;2023-07-31T07:38:50;16.30;99.90
19220;DHT22;9744;49.364;7.484;2023-07-31T07:41:17;16.40;99.90
19220;DHT22;9744;49.364;7.484;2023-07-31T07:43:46;16.50;99.90
19220;DHT22;9744;49.364;7.484;2023-07-31T07:46:13;16.50;99.90
19220;DHT22;9744;49.364;7.484;2023-07-31T07:48:40;16.60;99.90
19220;DHT22;9744;49.364;7.484;2023-07-31T07:51:07;16.70;99.90
19220;DHT22;9744;49.364;7.484;2023-07-31T07:53:35;16.80;99.90
19220;DHT22;9744;49.364;7.484;2023-07-31T07:56:02;16.80;99.90
19220;DHT22;9744;49.364;7.484;2023-07-31T07:58:29;16.80;99.90
19220;DHT22;9744;49.364;7.484;2023-07-31T08:00:58;16.80;99.90
19220;DHT22;9744;49.364;7.484;2023-07-31T08:03:25;16.80;99.90
19220;DHT22;9744;49.364;7.484;2023-07-31T08:05:57;16.80;99.90
19220;DHT22;9744;49.364;7.484;2023-07-31T08:08:25;16.80;99.90
19220;DHT22;9744;49.364;7.484;2023-07-31T08:10:52;16.80;99.90
19220;DHT22;9744;49.364;7.484;2023-07-31T08:13:19;16.90;99.90
19220;DHT22;9744;49.364;7.484;2023-07-31T08:15:46;17.10;99.90
19220;DHT22;9744;49.364;7.484;2023-07-31T08:18:15;17.20;99.90
19220;DHT22;9744;49.364;7.484;2023-07-31T08:20:43;17.30;99.90
19220;DHT22;9744;49.364;7.484;2023-07-31T08:23:10;17.50;99.90
19220;DHT22;9744;49.364;7.484;2023-07-31T08:25:38;17.70;99.90
19220;DHT22;9744;49.364;7.484;2023-07-31T08:28:06;17.80;99.90
19220;DHT22;9744;49.364;7.484;2023-07-31T08:30:33;17.90;99.90
19220;DHT22;9744;49.364;7.484;2023-07-31T08:33:01;18.00;99.90
19220;DHT22;9744;49.364;7.484;2023-07-31T08:35:29;18.10;99.90
19220;DHT22;9744;49.364;7.484;2023-07-31T08:37:57;18.20;99.90
19220;DHT22;9744;49.364;7.484;2023-07-31T08:40:24;18.20;99.90
19220;DHT22;9744;49.364;7.484;2023-07-31T08:42:53;18.20;99.90
19220;DHT22;9744;49.364;7.484;2023-07-31T08:45:22;18.10;99.90
19220;DHT22;9744;49.364;7.484;2023-07-31T08:47:50;18.10;99.90
19220;DHT22;9744;49.364;7.484;2023-07-31T08:50:19;18.10;99.90
19220;DHT22;9744;49.364;7.484;2023-07-31T08:52:49;18.20;99.90
19220;DHT22;9744;49.364;7.484;2023-07-31T08:55:18;18.10;99.90
19220;DHT22;9744;49.364;7.484;2023-07-31T08:57:50;18.20;99.90
19220;DHT22;9744;49.364;7.484;2023-07-31T09:00:19;18.30;99.90
19220;DHT22;9744;49.364;7.484;2023-07-31T09:02:54;18.40;99.90
19220;DHT22;9744;49.364;7.484;2023-07-31T09:05:23;18.60;99.90
19220;DHT22;9744;49.364;7.484;2023-07-31T09:07:54;18.60;99.90
19220;DHT22;9744;49.364;7.484;2023-07-31T09:10:22;18.50;99.90
19220;DHT22;9744;49.364;7.484;2023-07-31T09:12:51;18.60;99.90
19220;DHT22;9744;49.364;7.484;2023-07-31T09:15:19;18.60;99.90
19220;DHT22;9744;49.364;7.484;2023-07-31T09:17:46;18.80;99.90
19220;DHT22;9744;49.364;7.484;2023-07-31T09:20:15;18.90;99.90
19220;DHT22;9744;49.364;7.484;2023-07-31T09:22:43;19.00;99.90
19220;DHT22;9744;49.364;7.484;2023-07-31T09:25:19;19.00;99.90
19220;DHT22;9744;49.364;7.484;2023-07-31T09:27:47;19.10;99.90
19220;DHT22;9744;49.364;7.484;2023-07-31T09:30:15;19.20;99.90
19220;DHT22;9744;49.364;7.484;2023-07-31T09:32:43;19.10;99.90
19220;DHT22;9744;49.364;7.484;2023-07-31T09:35:19;19.00;99.90
19220;DHT22;9744;49.364;7.484;2023-07-31T09:37:52;19.00;99.90
19220;DHT22;9744;49.364;7.484;2023-07-31T09:40:28;19.10;99.90
19220;DHT22;9744;49.364;7.484;2023-07-31T09:42:58;18.80;99.90
19220;DHT22;9744;49.364;7.484;2023-07-31T09:45:27;18.80;99.90
19220;DHT22;9744;49.364;7.484;2023-07-31T09:47:55;18.80;99.90
19220;DHT22;9744;49.364;7.484;2023-07-31T09:50:23;18.90;99.90
19220;DHT22;9744;49.364;7.484;2023-07-31T09:52:52;18.90;99.90
19220;DHT22;9744;49.364;7.484;2023-07-31T09:55:19;18.90;99.90
19220;DHT22;9744;49.364;7.484;2023-07-31T09:57:49;19.00;99.90
19220;DHT22;9744;49.364;7.484;2023-07-31T10:00:18;19.10;99.90
19220;DHT22;9744;49.364;7.484;2023-07-31T10:02:48;19.20;99.90
19220;DHT22;9744;49.364;7.484;2023-07-31T10:05:15;19.10;99.90
19220;DHT22;9744;49.364;7.484;2023-07-31T10:07:45;19.00;99.90
19220;DHT22;9744;49.364;7.484;2023-07-31T10:10:15;18.90;99.90
19220;DHT22;9744;49.364;7.484;2023-07-31T10:12:44;18.90;99.90
19220;DHT22;9744;49.364;7.484;2023-07-31T10:15:15;19.10;99.90
19220;DHT22;9744;49.364;7.484;2023-07-31T10:17:42;19.30;99.90
19220;DHT22;9744;49.364;7.484;2023-07-31T10:20:10;19.50;99.90
19220;DHT22;9744;49.364;7.484;2023-07-31T10:22:38;19.80;99.90
19220;DHT22;9744;49.364;7.484;2023-07-31T10:25:08;20.10;99.90
19220;DHT22;9744;49.364;7.484;2023-07-31T10:27:36;20.20;99.90
19220;DHT22;9744;49.364;7.484;2023-07-31T10:30:08;20.10;99.90
19220;DHT22;9744;49.364;7.484;2023-07-31T10:32:38;19.90;99.90
19220;DHT22;9744;49.364;7.484;2023-07-31T10:35:07;19.80;99.90
19220;DHT22;9744;49.364;7.484;2023-07-31T10:37:37;19.80;99.90
19220;DHT22;9744;49.364;7.484;2023-07-31T10:40:06;19.70;99.90
19220;DHT22;9744;49.364;7.484;2023-07-31T10:42:35;19.80;99.90
19220;DHT22;9744;49.364;7.484;2023-07-31T10:45:04;19.90;99.90
19220;DHT22;9744;49.364;7.484;2023-07-31T10:47:38;20.30;99.90
19220;DHT22;9744;49.364;7.484;2023-07-31T10:50:14;20.30;99.90
19220;DHT22;9744;49.364;7.484;2023-07-31T10:52:46;20.20;99.90
19220;DHT22;9744;49.364;7.484;2023-07-31T10:55:25;20.30;99.90
19220;DHT22;9744;49.364;7.484;2023-07-31T10:57:53;20.30;99.90
19220;DHT22;9744;49.364;7.484;2023-07-31T11:00:23;20.40;99.90
19220;DHT22;9744;49.364;7.484;2023-07-31T11:03:01;20.50;99.90
19220;DHT22;9744;49.364;7.484;2023-07-31T11:05:42;20.50;99.90
19220;DHT22;9744;49.364;7.484;2023-07-31T11:08:12;20.40;99.90
19220;DHT22;9744;49.364;7.484;2023-07-31T11:10:39;20.50;99.90
19220;DHT22;9744;49.364;7.484;2023-07-31T11:13:06;20.60;99.90
19220;DHT22;9744;49.364;7.484;2023-07-31T11:15:34;20.60;99.90
19220;DHT22;9744;49.364;7.484;2023-07-31T11:18:03;20.60;99.90
19220;DHT22;9744;49.364;7.484;2023-07-31T11:20:31;20.60;99.90
19220;DHT22;9744;49.364;7.484;2023-07-31T11:23:01;20.80;99.90
19220;DHT22;9744;49.364;7.484;2023-07-31T11:25:29;21.00;99.90
19220;DHT22;9744;49.364;7.484;2023-07-31T11:27:57;21.20;99.90
19220;DHT22;9744;49.364;7.484;2023-07-31T11:30:25;21.50;99.90
19220;DHT22;9744;49.364;7.484;2023-07-31T11:32:52;21.30;99.90
19220;DHT22;9744;49.364;7.484;2023-07-31T11:35:20;21.30;99.90
19220;DHT22;9744;49.364;7.484;2023-07-31T11:37:48;21.40;99.90
19220;DHT22;9744;49.364;7.484;2023-07-31T11:40:15;21.30;99.90
19220;DHT22;9744;49.364;7.484;2023-07-31T11:42:43;21.10;99.90
19220;DHT22;9744;49.364;7.484;2023-07-31T11:45:10;21.00;99.90
19220;DHT22;9744;49.364;7.484;2023-07-31T11:47:38;21.00;99.90
19220;DHT22;9744;49.364;7.484;2023-07-31T11:50:09;21.00;99.90
19220;DHT22;9744;49.364;7.484;2023-07-31T11:52:41;20.80;99.90
19220;DHT22;9744;49.364;7.484;2023-07-31T11:55:10;20.90;99.90
19220;DHT22;9744;49.364;7.484;2023-07-31T11:57:39;20.80;99.90
19220;DHT22;9744;49.364;7.484;2023-07-31T12:00:08;20.50;99.90
19220;DHT22;9744;49.364;7.484;2023-07-31T12:02:37;20.60;99.90
19220;DHT22;9744;49.364;7.484;2023-07-31T12:05:06;20.60;99.90
19220;DHT22;9744;49.364;7.484;2023-07-31T12:07:47;20.40;99.90
19220;DHT22;9744;49.364;7.484;2023-07-31T12:10:28;20.20;99.90
19220;DHT22;9744;49.364;7.484;2023-07-31T12:13:01;20.20;99.90
19220;DHT22;9744;49.364;7.484;2023-07-31T12:15:39;20.20;99.90
19220;DHT22;9744;49.364;7.484;2023-07-31T12:18:08;20.20;99.90
19220;DHT22;9744;49.364;7.484;2023-07-31T12:20:40;20.20;99.90
19220;DHT22;9744;49.364;7.484;2023-07-31T12:23:14;20.30;99.90
19220;DHT22;9744;49.364;7.484;2023-07-31T12:25:42;20.30;99.90
19220;DHT22;9744;49.364;7.484;2023-07-31T12:28:09;20.30;99.90
19220;DHT22;9744;49.364;7.484;2023-07-31T12:30:40;20.20;99.90
19220;DHT22;9744;49.364;7.484;2023-07-31T12:33:12;20.40;99.90
19220;DHT22;9744;49.364;7.484;2023-07-31T12:35:43;20.30;99.90
19220;DHT22;9744;49.364;7.484;2023-07-31T12:38:11;20.10;99.90
19220;DHT22;9744;49.364;7.484;2023-07-31T12:40:41;20.00;99.90
19220;DHT22;9744;49.364;7.484;2023-07-31T12:43:08;19.90;99.90
19220;DHT22;9744;49.364;7.484;2023-07-31T12:45:36;19.90;99.90
19220;DHT22;9744;49.364;7.484;2023-07-31T12:48:03;20.00;99.90
19220;DHT22;9744;49.364;7.484;2023-07-31T12:50:31;20.00;99.90
19220;DHT22;9744;49.364;7.484;2023-07-31T12:52:58;20.00;99.90
19220;DHT22;9744;49.364;7.484;2023-07-31T12:55:25;19.80;99.90
19220;DHT22;9744;49.364;7.484;2023-07-31T12:57:54;19.70;99.90
19220;DHT22;9744;49.364;7.484;2023-07-31T13:00:22;19.70;99.90
19220;DHT22;9744;49.364;7.484;2023-07-31T13:02:49;19.80;99.90
19220;DHT22;9744;49.364;7.484;2023-07-31T13:05:17;19.70;99.90
19220;DHT22;9744;49.364;7.484;2023-07-31T13:07:45;19.50;99.90
19220;DHT22;9744;49.364;7.484;2023-07-31T13:10:13;19.50;99.90
19220;DHT22;9744;49.364;7.484;2023-07-31T13:12:42;19.50;99.90
19220;DHT22;9744;49.364;7.484;2023-07-31T13:15:10;19.70;99.90
19220;DHT22;9744;49.364;7.484;2023-07-31T13:17:38;19.70;99.90
19220;DHT22;9744;49.364;7.484;2023-07-31T13:20:06;19.70;99.90
19220;DHT22;9744;49.364;7.484;2023-07-31T13:22:35;19.70;99.90
19220;DHT22;9744;49.364;7.484;2023-07-31T13:25:02;19.50;99.90
19220;DHT22;9744;49.364;7.484;2023-07-31T13:27:30;19.40;99.90
19220;DHT22;9744;49.364;7.484;2023-07-31T13:29:58;19.30;99.90
19220;DHT22;9744;49.364;7.484;2023-07-31T13:32:26;19.30;99.90
19220;DHT22;9744;49.364;7.484;2023-07-31T13:34:53;19.30;99.90
19220;DHT22;9744;49.364;7.484;2023-07-31T13:37:21;19.20;99.90
19220;DHT22;9744;49.364;7.484;2023-07-31T13:39:47;19.20;99.90
19220;DHT22;9744;49.364;7.484;2023-07-31T13:42:14;19.30;99.90
19220;DHT22;9744;49.364;7.484;2023-07-31T13:44:42;19.50;99.90
19220;DHT22;9744;49.364;7.484;2023-07-31T13:47:09;19.50;99.90
19220;DHT22;9744;49.364;7.484;2023-07-31T13:49:38;19.60;99.90
19220;DHT22;9744;49.364;7.484;2023-07-31T13:52:06;19.80;99.90
19220;DHT22;9744;49.364;7.484;2023-07-31T13:54:33;19.90;99.90
19220;DHT22;9744;49.364;7.484;2023-07-31T13:57:00;19.80;99.90
19220;DHT22;9744;49.364;7.484;2023-07-31T13:59:28;19.90;99.90
19220;DHT22;9744;49.364;7.484;2023-07-31T14:01:55;20.00;99.90
19220;DHT22;9744;49.364;7.484;2023-07-31T14:04:22;20.10;99.90
19220;DHT22;9744;49.364;7.484;2023-07-31T14:06:53;20.20;99.90
19220;DHT22;9744;49.364;7.484;2023-07-31T14:09:20;20.20;99.90
19220;DHT22;9744;49.364;7.484;2023-07-31T14:11:48;20.30;99.90
19220;DHT22;9744;49.364;7.484;2023-07-31T14:14:15;20.40;99.90
19220;DHT22;9744;49.364;7.484;2023-07-31T14:16:43;20.60;99.90
19220;DHT22;9744;49.364;7.484;2023-07-31T14:19:11;20.70;99.90
19220;DHT22;9744;49.364;7.484;2023-07-31T14:21:38;20.80;99.90
19220;DHT22;9744;49.364;7.484;2023-07-31T14:24:07;20.90;99.90
19220;DHT22;9744;49.364;7.484;2023-07-31T14:26:34;20.80;99.90
19220;DHT22;9744;49.364;7.484;2023-07-31T14:29:01;20.60;99.90
19220;DHT22;9744;49.364;7.484;2023-07-31T14:31:28;20.70;99.90
19220;DHT22;9744;49.364;7.484;2023-07-31T14:33:55;20.50;99.90
19220;DHT22;9744;49.364;7.484;2023-07-31T14:36:23;20.50;99.90
19220;DHT22;9744;49.364;7.484;2023-07-31T14:38:50;20.50;99.90
19220;DHT22;9744;49.364;7.484;2023-07-31T14:41:19;20.30;99.90
19220;DHT22;9744;49.364;7.484;2023-07-31T14:43:46;20.20;99.90
19220;DHT22;9744;49.364;7.484;2023-07-31T14:46:13;20.10;99.90
19220;DHT22;9744;49.364;7.484;2023-07-31T14:48:41;20.20;99.90
19220;DHT22;9744;49.364;7.484;2023-07-31T14:51:08;20.20;99.90
19220;DHT22;9744;49.364;7.484;2023-07-31T14:53:35;20.10;99.90
19220;DHT22;9744;49.364;7.484;2023-07-31T14:56:03;20.10;99.90
19220;DHT22;9744;49.364;7.484;2023-07-31T14:58:35;20.00;99.90
19220;DHT22;9744;49.364;7.484;2023-07-31T15:01:02;20.10;99.90
19220;DHT22;9744;49.364;7.484;2023-07-31T15:03:29;20.00;99.90
19220;DHT22;9744;49.364;7.484;2023-07-31T15:05:57;20.00;99.90
19220;DHT22;9744;49.364;7.484;2023-07-31T15:08:24;20.00;99.90
19220;DHT22;9744;49.364;7.484;2023-07-31T15:10:51;20.10;99.90
19220;DHT22;9744;49.364;7.484;2023-07-31T15:13:23;20.10;99.90
19220;DHT22;9744;49.364;7.484;2023-07-31T15:15:52;20.20;99.90
19220;DHT22;9744;49.364;7.484;2023-07-31T15:18:19;20.20;99.90
19220;DHT22;9744;49.364;7.484;2023-07-31T15:20:46;20.30;99.90
19220;DHT22;9744;49.364;7.484;2023-07-31T15:23:14;20.30;99.90
19220;DHT22;9744;49.364;7.484;2023-07-31T15:25:41;20.30;99.90
19220;DHT22;9744;49.364;7.484;2023-07-31T15:28:09;20.40;99.90
19220;DHT22;9744;49.364;7.484;2023-07-31T15:30:36;20.40;99.90
19220;DHT22;9744;49.364;7.484;2023-07-31T15:33:05;20.30;99.90
19220;DHT22;9744;49.364;7.484;2023-07-31T15:35:32;20.30;99.90
19220;DHT22;9744;49.364;7.484;2023-07-31T15:38:00;20.50;99.90
19220;DHT22;9744;49.364;7.484;2023-07-31T15:40:27;20.50;99.90
19220;DHT22;9744;49.364;7.484;2023-07-31T15:42:54;20.50;99.90
19220;DHT22;9744;49.364;7.484;2023-07-31T15:45:22;20.60;99.90
19220;DHT22;9744;49.364;7.484;2023-07-31T15:47:49;20.60;99.90
19220;DHT22;9744;49.364;7.484;2023-07-31T15:50:18;20.50;99.90
19220;DHT22;9744;49.364;7.484;2023-07-31T15:52:45;20.40;99.90